Time;durP1;ratioP1;P1;durP2;ratioP2;P2;SDS_P1;SDS_P2;PMS_P1;PMS_P2;Temp;Humidity;BMP_temperature;BMP_pressure;BME280_temperature;BME280_humidity;BME280_pressure;Samples;Min_cycle;Max_cycle;Signal;HPM_P1;HPM_P2
2023/01/17 00:00:38;;;;;;;15.75;11.45;;;16.90;48.80;;;;;;5018085;28;20196;-80
2023/01/17 00:03:04;;;;;;;13.07;10.00;;;16.80;48.70;;;;;;5017198;28;20216;-80
2023/01/17 00:11:16;;;;;;;14.82;10.52;;;16.70;49.30;;;;;;4955104;29;20206;-80
2023/01/17 00:13:44;;;;;;;12.50;9.65;;;16.70;49.70;;;;;;4955994;29;20195;-80
2023/01/17 00:16:12;;;;;;;15.32;11.38;;;16.70;49.10;;;;;;4974758;28;20239;-80
2023/01/17 00:18:38;;;;;;;13.85;9.98;;;16.70;50.20;;;;;;5017352;28;20658;-80
2023/01/17 01:35:57;;;;;;;8.15;6.50;;;16.20;48.70;;;;;;5015876;28;20219;-79
2023/01/17 01:38:25;;;;;;;7.43;5.95;;;16.20;49.30;;;;;;5016459;28;20653;-79
2023/01/17 01:40:54;;;;;;;9.68;7.10;;;16.20;48.60;;;;;;5016120;28;20659;-79
2023/01/17 01:43:39;;;;;;;10.27;7.57;;;16.20;48.70;;;;;;5015956;28;20254;-80
2023/01/17 01:46:06;;;;;;;8.68;7.00;;;16.20;48.70;;;;;;5015969;28;20698;-80
2023/01/17 01:48:35;;;;;;;7.57;6.50;;;16.20;48.70;;;;;;5033600;28;20666;-80
2023/01/17 01:51:03;;;;;;;7.20;6.15;;;16.10;48.70;;;;;;5015746;28;20200;-80
2023/01/17 01:53:31;;;;;;;8.82;6.57;;;16.20;48.70;;;;;;5016288;28;20204;-80
2023/01/17 01:56:00;;;;;;;8.52;6.20;;;16.10;48.60;;;;;;5016137;28;20242;-80
2023/01/17 01:58:28;;;;;;;8.45;6.05;;;16.10;48.70;;;;;;5016071;28;20200;-80
2023/01/17 02:00:55;;;;;;;7.70;6.30;;;16.10;48.70;;;;;;5015757;28;20192;-80
2023/01/17 02:03:24;;;;;;;7.93;6.28;;;16.10;48.70;;;;;;5015915;28;20641;-80
2023/01/17 02:05:51;;;;;;;7.75;5.90;;;16.10;48.90;;;;;;5018017;28;20223;-80
2023/01/17 02:08:20;;;;;;;6.43;5.80;;;16.10;48.90;;;;;;5033613;28;20200;-80
2023/01/17 02:10:46;;;;;;;6.35;5.70;;;16.00;48.70;;;;;;5016436;28;20200;-80
2023/01/17 02:13:16;;;;;;;7.78;6.28;;;16.00;48.70;;;;;;5015970;28;20200;-80
2023/01/17 02:15:53;;;;;;;7.50;5.80;;;16.00;48.90;;;;;;5015502;28;20274;-81
2023/01/17 02:18:23;;;;;;;8.40;6.47;;;16.10;48.90;;;;;;5016417;28;20191;-81
2023/01/17 02:21:17;;;;;;;8.00;5.68;;;16.00;48.80;;;;;;5016097;28;20208;-81
2023/01/17 02:24:24;;;;;;;7.45;5.43;;;16.00;48.90;;;;;;5015852;28;20215;-81
2023/01/17 02:27:00;;;;;;;6.25;5.45;;;16.00;48.90;;;;;;5016909;28;20222;-80
2023/01/17 02:29:47;;;;;;;6.90;5.80;;;16.00;48.80;;;;;;5019363;28;20234;-81
2023/01/17 02:32:17;;;;;;;8.15;5.53;;;16.00;48.90;;;;;;5019855;28;20218;-81
2023/01/17 02:34:46;;;;;;;7.95;5.80;;;16.00;49.10;;;;;;5003172;28;20557;-81
2023/01/17 02:37:15;;;;;;;7.78;5.63;;;15.90;49.00;;;;;;5019393;28;20270;-81
2023/01/17 02:39:43;;;;;;;6.30;5.18;;;15.90;48.90;;;;;;5019379;28;20223;-81
2023/01/17 02:42:13;;;;;;;5.90;5.18;;;15.90;49.00;;;;;;5019224;28;20200;-81
2023/01/17 02:44:41;;;;;;;6.20;5.03;;;15.90;48.90;;;;;;5019398;28;20270;-81
2023/01/17 02:47:21;;;;;;;5.93;5.32;;;15.90;49.00;;;;;;5019272;28;20539;-81
2023/01/17 02:49:48;;;;;;;6.65;5.43;;;15.90;49.00;;;;;;5019657;28;20216;-81
2023/01/17 02:52:23;;;;;;;6.90;5.60;;;15.90;49.10;;;;;;5019095;28;20200;-81
2023/01/17 02:55:00;;;;;;;5.57;4.95;;;15.90;49.10;;;;;;5019100;28;20200;-81
2023/01/17 02:57:38;;;;;;;6.10;5.07;;;15.90;49.00;;;;;;5002778;28;20217;-81
2023/01/17 03:00:09;;;;;;;6.07;4.65;;;15.90;49.10;;;;;;5019147;28;20204;-80
2023/01/17 03:02:40;;;;;;;6.18;4.97;;;15.90;49.10;;;;;;5019317;28;20193;-80
2023/01/17 03:05:10;;;;;;;7.20;5.03;;;15.80;49.10;;;;;;5018980;28;20196;-80
2023/01/17 03:07:38;;;;;;;5.93;4.85;;;15.80;49.10;;;;;;5019107;28;20227;-80
2023/01/17 03:10:06;;;;;;;7.30;5.00;;;15.80;49.20;;;;;;5019135;28;20530;-80
2023/01/17 03:12:34;;;;;;;5.40;4.78;;;15.80;49.10;;;;;;5019231;28;20255;-80
2023/01/17 03:15:01;;;;;;;5.97;5.10;;;15.80;49.10;;;;;;5018981;28;20196;-80
2023/01/17 03:17:29;;;;;;;5.70;4.72;;;15.80;49.00;;;;;;5020083;28;20215;-80
2023/01/17 03:19:58;;;;;;;6.35;4.90;;;15.80;49.10;;;;;;5020260;28;20559;-81
2023/01/17 03:22:25;;;;;;;6.57;5.10;;;15.80;49.30;;;;;;5021818;28;20262;-81
2023/01/17 03:24:52;;;;;;;4.75;4.25;;;15.80;49.20;;;;;;5019332;28;20311;-81
2023/01/17 03:27:20;;;;;;;6.45;4.75;;;15.70;49.20;;;;;;5019030;28;20216;-81
2023/01/17 03:29:47;;;;;;;5.38;4.70;;;15.80;49.20;;;;;;5019694;28;20196;-81
2023/01/17 03:32:14;;;;;;;5.60;3.90;;;15.70;49.10;;;;;;5019062;28;20207;-81
2023/01/17 03:34:41;;;;;;;5.55;4.47;;;15.70;49.10;;;;;;5036957;28;20188;-81
2023/01/17 03:37:09;;;;;;;5.07;4.57;;;15.70;49.00;;;;;;5019298;28;20216;-81
2023/01/17 03:39:36;;;;;;;6.30;4.80;;;15.70;49.20;;;;;;5019309;28;20246;-81
2023/01/17 03:42:03;;;;;;;5.72;4.40;;;15.70;49.00;;;;;;5019854;28;20662;-81
2023/01/17 03:44:30;;;;;;;6.07;4.45;;;15.70;49.10;;;;;;5019485;28;20212;-81
2023/01/17 03:46:57;;;;;;;5.88;4.63;;;15.70;49.10;;;;;;5019135;28;20219;-81
2023/01/17 03:49:24;;;;;;;5.22;4.28;;;15.70;49.20;;;;;;5018677;28;20635;-81
2023/01/17 03:51:51;;;;;;;5.35;4.15;;;15.70;49.10;;;;;;5018281;28;20218;-81
2023/01/17 03:54:19;;;;;;;6.53;4.53;;;15.70;49.10;;;;;;5018501;28;20242;-81
2023/01/17 03:56:46;;;;;;;5.53;4.20;;;15.70;49.00;;;;;;5018195;28;20710;-81
2023/01/17 03:59:14;;;;;;;4.60;3.92;;;15.70;48.90;;;;;;5018449;28;20196;-81
2023/01/17 04:01:41;;;;;;;4.80;4.15;;;15.70;49.00;;;;;;5020043;28;20208;-81
2023/01/17 04:04:08;;;;;;;4.95;4.15;;;15.70;49.00;;;;;;5019154;28;20216;-81
2023/01/17 04:06:35;;;;;;;5.07;4.32;;;15.70;49.00;;;;;;5018825;28;20216;-81
2023/01/17 04:09:02;;;;;;;4.75;4.13;;;15.70;48.90;;;;;;5018998;28;20208;-81
2023/01/17 04:11:30;;;;;;;5.20;4.15;;;15.70;48.90;;;;;;5019196;28;20198;-81
2023/01/17 04:13:57;;;;;;;4.93;3.95;;;15.60;49.20;;;;;;5001995;28;20196;-81
2023/01/17 04:16:26;;;;;;;4.65;4.00;;;15.60;49.40;;;;;;5018015;28;20682;-81
2023/01/17 04:18:53;;;;;;;4.53;3.97;;;15.60;49.60;;;;;;5001745;28;20196;-81
2023/01/17 04:21:20;;;;;;;4.13;3.60;;;15.60;49.80;;;;;;5018299;28;20533;-81
2023/01/17 04:23:47;;;;;;;5.18;3.90;;;15.50;50.00;;;;;;5035203;28;20557;-81
2023/01/17 04:26:14;;;;;;;3.92;3.50;;;15.50;50.30;;;;;;5017413;28;20219;-81
2023/01/17 04:28:43;;;;;;;4.97;3.70;;;15.50;50.20;;;;;;5017769;28;20239;-81
2023/01/17 04:31:11;;;;;;;4.13;3.63;;;15.50;50.10;;;;;;5017410;28;20234;-81
2023/01/17 04:33:39;;;;;;;4.68;3.85;;;15.50;50.20;;;;;;5017373;28;20238;-81
2023/01/17 04:36:06;;;;;;;4.68;4.03;;;15.60;50.40;;;;;;5017126;28;20243;-81
2023/01/17 04:38:34;;;;;;;3.97;3.42;;;15.50;50.00;;;;;;5000856;28;20761;-81
2023/01/17 04:41:01;;;;;;;3.92;3.40;;;15.50;50.00;;;;;;5017497;28;20192;-81
2023/01/17 04:43:28;;;;;;;4.13;3.60;;;15.50;50.00;;;;;;5017396;28;20216;-81
2023/01/17 04:45:58;;;;;;;4.07;3.35;;;15.50;50.10;;;;;;5001061;28;20212;-81
2023/01/17 04:48:26;;;;;;;3.33;3.03;;;15.60;50.20;;;;;;5017122;28;20720;-81
2023/01/17 04:50:59;;;;;;;3.88;3.30;;;15.60;50.10;;;;;;5016976;28;20227;-81
2023/01/17 04:53:26;;;;;;;4.75;3.67;;;15.60;50.10;;;;;;5016796;28;20184;-81
2023/01/17 04:55:53;;;;;;;4.28;3.60;;;15.60;50.00;;;;;;5034729;28;20211;-81
2023/01/17 04:58:21;;;;;;;3.60;3.28;;;15.60;49.90;;;;;;5001078;28;20615;-81
2023/01/17 05:00:49;;;;;;;4.18;3.40;;;15.60;49.70;;;;;;5016880;28;20235;-81
2023/01/17 05:03:18;;;;;;;4.78;3.03;;;15.70;49.70;;;;;;5017260;28;20211;-81
2023/01/17 05:05:45;;;;;;;4.20;3.45;;;15.60;49.60;;;;;;5017207;28;20200;-81
2023/01/17 05:08:13;;;;;;;4.13;3.13;;;15.60;49.50;;;;;;5018926;28;20207;-81
2023/01/17 05:10:40;;;;;;;3.95;3.42;;;15.60;49.40;;;;;;5003875;28;20211;-83
2023/01/17 05:13:07;;;;;;;3.70;3.38;;;15.60;49.50;;;;;;5021954;28;20571;-81
2023/01/17 05:15:36;;;;;;;3.60;3.28;;;15.70;49.40;;;;;;5021759;28;20658;-82
2023/01/17 05:18:07;;;;;;;3.22;2.85;;;15.60;49.20;;;;;;5022517;28;20574;-81
2023/01/17 05:20:36;;;;;;;3.65;3.20;;;15.60;49.10;;;;;;5022113;28;20202;-81
2023/01/17 05:23:03;;;;;;;4.53;3.15;;;15.70;49.40;;;;;;5022043;28;20196;-81
2023/01/17 05:25:31;;;;;;;3.15;2.83;;;15.80;48.80;;;;;;5022594;28;20307;-82
2023/01/17 05:27:58;;;;;;;4.32;3.33;;;15.80;48.70;;;;;;5005089;28;20250;-81
2023/01/17 05:30:27;;;;;;;4.28;3.17;;;15.90;48.40;;;;;;5022468;28;20204;-81
2023/01/17 05:32:57;;;;;;;3.45;2.95;;;15.90;48.60;;;;;;5021596;28;20203;-81
2023/01/17 05:35:27;;;;;;;3.33;3.03;;;15.90;48.40;;;;;;5038580;28;20635;-84
2023/01/17 05:37:58;;;;;;;3.53;3.15;;;15.90;48.50;;;;;;5005705;28;20631;-86
2023/01/17 05:40:27;;;;;;;3.28;2.97;;;15.90;48.60;;;;;;5022072;28;20234;-87
2023/01/17 05:42:54;;;;;;;4.20;2.90;;;15.90;48.30;;;;;;5020980;28;20220;-85
2023/01/17 05:45:23;;;;;;;3.47;3.05;;;16.00;48.50;;;;;;5020173;28;20297;-85
2023/01/17 05:47:51;;;;;;;3.47;3.17;;;16.00;48.50;;;;;;5020255;28;20244;-87
2023/01/17 05:50:20;;;;;;;3.10;2.80;;;16.00;48.50;;;;;;5019006;28;20286;-85
2023/01/17 05:52:51;;;;;;;3.45;2.70;;;15.90;48.40;;;;;;5016147;28;20200;-85
2023/01/17 05:55:20;;;;;;;4.15;2.95;;;16.00;48.50;;;;;;5016605;28;20700;-85
2023/01/17 05:57:47;;;;;;;3.08;2.70;;;16.00;48.50;;;;;;5016177;28;20212;-85
2023/01/17 06:00:15;;;;;;;3.17;2.88;;;16.00;48.50;;;;;;5016243;28;20207;-85
2023/01/17 06:02:42;;;;;;;2.78;2.53;;;16.00;48.50;;;;;;5018971;28;20310;-85
2023/01/17 06:05:09;;;;;;;3.40;2.80;;;16.00;48.30;;;;;;5020101;28;20226;-85
2023/01/17 06:07:36;;;;;;;3.00;2.70;;;16.00;48.10;;;;;;5019989;28;20230;-85
2023/01/17 06:10:04;;;;;;;3.33;2.92;;;16.00;48.00;;;;;;5020736;28;20195;-85
2023/01/17 06:12:33;;;;;;;2.70;2.45;;;16.10;48.10;;;;;;5020314;28;20204;-85
2023/01/17 06:15:00;;;;;;;2.88;2.50;;;16.10;48.00;;;;;;5020675;28;20246;-85
2023/01/17 06:17:27;;;;;;;2.88;2.67;;;16.00;47.70;;;;;;5020473;28;20230;-79
2023/01/17 06:19:54;;;;;;;3.42;2.70;;;16.10;48.20;;;;;;5020690;28;20282;-81
2023/01/17 06:22:21;;;;;;;2.60;2.40;;;16.10;48.00;;;;;;5021211;28;20244;-81
2023/01/17 06:24:48;;;;;;;2.70;2.50;;;16.10;48.10;;;;;;5038938;28;20212;-81
2023/01/17 06:27:15;;;;;;;2.90;2.55;;;16.10;47.70;;;;;;5020840;28;20231;-81
2023/01/17 06:29:43;;;;;;;2.75;2.53;;;16.20;48.00;;;;;;5020298;28;20200;-81
2023/01/17 06:32:13;;;;;;;3.20;2.58;;;16.10;47.80;;;;;;5020543;28;20279;-81
2023/01/17 06:34:40;;;;;;;2.90;2.50;;;16.10;47.80;;;;;;5005548;28;20291;-81
2023/01/17 06:37:07;;;;;;;2.35;2.03;;;16.10;47.70;;;;;;5020994;28;20306;-81
2023/01/17 06:39:34;;;;;;;2.60;2.40;;;16.20;47.80;;;;;;5005071;28;20668;-81
2023/01/17 06:42:01;;;;;;;3.17;2.65;;;16.10;47.80;;;;;;5019794;28;20291;-82
2023/01/17 06:44:28;;;;;;;2.88;2.35;;;16.10;47.80;;;;;;5019513;28;20764;-84
2023/01/17 06:46:57;;;;;;;3.55;2.42;;;16.10;47.70;;;;;;5022452;28;20244;-84
2023/01/17 06:49:24;;;;;;;4.55;2.33;;;16.10;47.30;;;;;;5021366;28;20287;-84
2023/01/17 06:51:51;;;;;;;2.65;2.45;;;16.00;47.40;;;;;;5020528;28;20200;-84
2023/01/17 06:54:18;;;;;;;4.10;2.42;;;16.00;47.30;;;;;;5020330;28;20200;-84
2023/01/17 06:56:45;;;;;;;4.32;2.50;;;16.10;47.30;;;;;;5006678;28;20295;-84
2023/01/17 06:59:12;;;;;;;2.60;2.40;;;16.10;47.20;;;;;;5020484;28;20566;-84
2023/01/17 07:01:40;;;;;;;2.55;2.10;;;16.00;47.40;;;;;;5020561;28;20204;-84
2023/01/17 07:04:08;;;;;;;3.50;2.50;;;16.00;47.10;;;;;;5004268;28;20231;-84
2023/01/17 07:06:36;;;;;;;2.85;2.28;;;16.10;47.30;;;;;;5019867;28;20307;-84
2023/01/17 07:09:04;;;;;;;2.30;2.10;;;16.00;47.30;;;;;;5020831;28;20204;-84
2023/01/17 07:11:31;;;;;;;2.70;2.30;;;16.00;47.30;;;;;;5020531;28;20238;-84
2023/01/17 07:13:58;;;;;;;3.20;2.00;;;16.00;47.30;;;;;;5002910;28;20196;-84
2023/01/17 07:16:26;;;;;;;2.40;2.20;;;16.10;47.10;;;;;;5020451;28;20239;-84
2023/01/17 07:18:53;;;;;;;2.70;2.17;;;16.00;47.10;;;;;;5019738;28;20219;-84
2023/01/17 07:21:21;;;;;;;2.35;2.05;;;16.00;47.10;;;;;;5020281;28;20554;-84
2023/01/17 07:23:48;;;;;;;2.20;2.00;;;16.00;47.20;;;;;;5019501;28;20200;-84
2023/01/17 07:26:16;;;;;;;2.65;1.80;;;16.00;47.10;;;;;;5003455;28;20220;-84
2023/01/17 07:28:43;;;;;;;2.42;2.00;;;16.00;47.10;;;;;;5003193;28;20258;-84
2023/01/17 07:31:11;;;;;;;2.40;2.20;;;16.10;47.10;;;;;;5020398;28;20216;-84
2023/01/17 07:33:38;;;;;;;2.17;1.95;;;16.00;47.10;;;;;;5019727;28;20234;-84
2023/01/17 07:36:06;;;;;;;2.47;2.20;;;16.10;47.10;;;;;;5019575;28;20286;-84
2023/01/17 07:38:34;;;;;;;2.42;2.10;;;16.00;47.30;;;;;;5018887;28;20204;-84
2023/01/17 07:41:02;;;;;;;2.38;2.15;;;16.00;47.30;;;;;;5020444;28;20200;-84
2023/01/17 07:43:29;;;;;;;2.63;2.22;;;16.10;47.10;;;;;;5020519;28;20204;-84
2023/01/17 07:45:56;;;;;;;2.20;2.00;;;16.10;47.10;;;;;;5020216;28;20277;-84
2023/01/17 07:48:24;;;;;;;2.08;1.88;;;16.10;47.10;;;;;;5020069;28;20646;-84
2023/01/17 07:50:52;;;;;;;1.88;1.77;;;16.20;47.00;;;;;;5019388;28;20200;-85
2023/01/17 07:53:19;;;;;;;2.20;2.00;;;16.20;47.00;;;;;;5019451;28;20204;-84
2023/01/17 07:55:48;;;;;;;2.03;1.83;;;16.20;46.90;;;;;;5018614;28;20199;-84
2023/01/17 07:58:15;;;;;;;2.30;1.90;;;16.20;46.90;;;;;;5019230;28;20196;-84
2023/01/17 08:00:43;;;;;;;2.38;2.17;;;16.20;46.60;;;;;;5018263;28;20203;-84
2023/01/17 08:03:12;;;;;;;2.28;2.03;;;16.20;46.70;;;;;;5018113;28;20300;-83
2023/01/17 08:05:40;;;;;;;2.75;2.13;;;16.20;46.70;;;;;;5017743;28;20216;-84
2023/01/17 08:08:07;;;;;;;1.98;1.80;;;16.30;46.70;;;;;;5017596;28;20631;-84
2023/01/17 08:10:33;;;;;;;2.70;2.00;;;16.30;46.70;;;;;;5018135;28;20195;-84
2023/01/17 08:13:02;;;;;;;2.10;1.90;;;16.30;46.60;;;;;;5018360;28;20200;-84
2023/01/17 08:15:29;;;;;;;2.40;1.90;;;16.30;46.60;;;;;;5018110;28;20291;-84
2023/01/17 08:17:57;;;;;;;2.63;2.28;;;16.30;46.60;;;;;;5018212;28;20682;-84
2023/01/17 08:20:24;;;;;;;2.42;2.10;;;16.40;46.60;;;;;;5018128;28;20290;-84
2023/01/17 08:22:55;;;;;;;2.80;2.10;;;16.40;46.70;;;;;;5017614;28;20251;-84
2023/01/17 08:25:23;;;;;;;2.20;2.00;;;16.40;46.50;;;;;;5017744;28;20265;-84
2023/01/17 08:27:50;;;;;;;2.67;2.10;;;16.40;46.50;;;;;;5017350;28;20215;-84
2023/01/17 08:30:19;;;;;;;2.30;2.10;;;16.50;46.50;;;;;;5001998;28;20234;-84
2023/01/17 08:32:46;;;;;;;2.95;2.17;;;16.50;46.30;;;;;;5017794;28;20200;-84
2023/01/17 08:35:14;;;;;;;2.10;1.90;;;16.60;46.20;;;;;;5017333;28;20666;-84
2023/01/17 08:37:41;;;;;;;2.33;2.10;;;16.60;46.10;;;;;;5017985;28;20216;-84
2023/01/17 08:40:09;;;;;;;2.85;2.10;;;16.60;46.10;;;;;;5017576;28;20548;-84
2023/01/17 08:42:38;;;;;;;1.80;1.58;;;16.60;46.00;;;;;;5017622;28;20200;-84
2023/01/17 08:45:06;;;;;;;2.08;1.80;;;16.60;46.70;;;;;;5017005;28;20264;-84
2023/01/17 08:47:35;;;;;;;2.05;1.85;;;16.60;46.10;;;;;;5017324;28;20250;-84
2023/01/17 08:50:03;;;;;;;2.03;1.70;;;16.60;46.20;;;;;;5017107;28;20211;-84
2023/01/17 08:52:30;;;;;;;2.00;1.80;;;16.60;46.20;;;;;;5017437;28;20196;-84
2023/01/17 08:54:57;;;;;;;2.20;2.00;;;16.60;46.20;;;;;;5017733;28;20199;-84
2023/01/17 08:57:24;;;;;;;2.70;2.10;;;16.70;46.20;;;;;;5017786;28;20212;-83
2023/01/17 08:59:51;;;;;;;1.75;1.55;;;16.70;46.30;;;;;;5025029;28;20200;-83
2023/01/17 09:02:19;;;;;;;2.58;1.90;;;16.70;46.10;;;;;;5022608;28;20651;-83
2023/01/17 09:04:48;;;;;;;2.85;2.00;;;16.70;46.20;;;;;;5026581;28;20215;-84
2023/01/17 09:07:15;;;;;;;1.88;1.75;;;16.80;46.10;;;;;;5044248;28;20219;-85
2023/01/17 09:09:42;;;;;;;1.63;1.52;;;16.90;45.80;;;;;;5024593;28;20200;-82
2023/01/17 09:12:09;;;;;;;2.05;1.88;;;16.90;45.30;;;;;;5026024;28;20290;-82
2023/01/17 09:14:37;;;;;;;1.70;1.52;;;16.90;45.40;;;;;;5041247;28;20192;-82
2023/01/17 09:17:05;;;;;;;2.10;1.90;;;17.00;45.40;;;;;;5026819;28;20232;-81
2023/01/17 09:19:34;;;;;;;2.65;2.17;;;17.00;45.30;;;;;;5018973;28;20200;-82
2023/01/17 09:22:04;;;;;;;1.90;1.70;;;17.00;45.30;;;;;;5021359;28;20200;-82
2023/01/17 09:24:31;;;;;;;2.55;1.88;;;17.00;45.40;;;;;;5034605;28;20190;-82
2023/01/17 09:26:58;;;;;;;2.00;1.80;;;17.00;45.60;;;;;;5012624;28;20216;-84
2023/01/17 09:29:25;;;;;;;2.38;2.17;;;17.00;45.40;;;;;;5016978;28;20219;-82
2023/01/17 09:31:52;;;;;;;2.58;2.03;;;17.00;45.40;;;;;;5017973;28;20234;-82
2023/01/17 09:34:20;;;;;;;2.25;1.95;;;17.00;44.80;;;;;;5004457;28;20575;-83
2023/01/17 09:36:47;;;;;;;2.33;1.85;;;17.10;45.10;;;;;;5018708;28;20216;-82
2023/01/17 09:39:15;;;;;;;3.13;2.22;;;17.00;44.70;;;;;;5002829;28;20286;-82
2023/01/17 09:41:46;;;;;;;2.25;2.05;;;17.10;45.00;;;;;;5000970;28;20207;-82
2023/01/17 09:44:21;;;;;;;2.05;1.83;;;17.10;44.90;;;;;;5017008;28;20203;-82
2023/01/17 09:46:49;;;;;;;2.38;2.08;;;17.10;44.70;;;;;;5017241;28;20211;-82
2023/01/17 09:49:26;;;;;;;1.90;1.67;;;17.10;45.10;;;;;;5016778;28;20217;-82
2023/01/17 09:51:53;;;;;;;2.75;1.90;;;17.20;44.60;;;;;;5016881;28;20183;-83
2023/01/17 09:54:22;;;;;;;2.22;2.03;;;17.20;44.80;;;;;;5036902;28;20204;-82
2023/01/17 09:56:53;;;;;;;2.60;2.35;;;17.10;44.80;;;;;;5020995;28;20240;-83
2023/01/17 09:59:27;;;;;;;2.22;1.92;;;17.10;44.70;;;;;;5021607;28;20211;-83
2023/01/17 10:01:57;;;;;;;2.33;2.10;;;17.10;44.90;;;;;;5021747;28;20286;-82
2023/01/17 10:04:33;;;;;;;2.42;2.08;;;17.10;44.60;;;;;;5022300;28;20192;-83
2023/01/17 10:07:09;;;;;;;2.25;2.05;;;17.10;44.80;;;;;;5022254;28;20259;-83
2023/01/17 10:09:47;;;;;;;1.85;1.75;;;17.20;44.70;;;;;;5020948;28;20204;-83
2023/01/17 10:12:18;;;;;;;2.17;1.92;;;17.20;44.90;;;;;;5021321;28;20196;-83
2023/01/17 10:15:18;;;;;;;2.25;2.05;;;17.20;44.90;;;;;;5021754;28;20196;-83
2023/01/17 10:17:50;;;;;;;2.28;2.03;;;17.20;44.90;;;;;;5005865;28;20220;-83
2023/01/17 10:20:38;;;;;;;2.00;1.88;;;17.20;45.50;;;;;;5020003;28;20215;-83
2023/01/17 10:23:16;;;;;;;2.47;2.00;;;17.20;44.90;;;;;;5007140;28;20223;-83
2023/01/17 10:25:46;;;;;;;2.22;1.98;;;17.20;44.80;;;;;;5020625;28;20617;-83
2023/01/17 10:28:16;;;;;;;2.40;2.00;;;17.20;44.80;;;;;;5020065;28;20231;-83
2023/01/17 10:30:47;;;;;;;2.13;1.92;;;17.20;44.30;;;;;;5016443;28;20199;-83
2023/01/17 10:33:16;;;;;;;2.72;1.83;;;17.20;44.80;;;;;;5019701;28;20192;-84
2023/01/17 10:35:49;;;;;;;2.15;1.95;;;17.20;44.40;;;;;;5016350;28;20378;-84
2023/01/17 10:38:16;;;;;;;2.33;1.70;;;17.20;44.40;;;;;;5016207;28;20203;-84
2023/01/17 10:40:49;;;;;;;1.77;1.67;;;17.20;44.50;;;;;;5016956;28;20204;-84
2023/01/17 10:43:19;;;;;;;2.13;1.92;;;17.30;44.50;;;;;;5018763;28;20231;-84
2023/01/17 10:45:51;;;;;;;2.35;1.70;;;17.30;44.40;;;;;;5019058;28;20223;-84
2023/01/17 10:48:26;;;;;;;2.03;1.83;;;17.30;44.10;;;;;;5004775;28;20618;-84
2023/01/17 10:50:56;;;;;;;2.38;1.83;;;17.20;43.80;;;;;;5023567;28;20195;-84
2023/01/17 10:53:34;;;;;;;1.60;1.50;;;17.30;44.40;;;;;;5022964;28;20192;-82
2023/01/17 10:56:02;;;;;;;1.83;1.73;;;17.30;44.20;;;;;;4990894;28;20314;-82
2023/01/17 10:58:30;;;;;;;1.70;1.60;;;17.30;44.10;;;;;;5006952;28;20206;-82
2023/01/17 11:00:58;;;;;;;1.88;1.77;;;17.30;43.90;;;;;;5006748;28;20200;-82
2023/01/17 11:03:27;;;;;;;1.92;1.73;;;17.30;43.60;;;;;;5022910;28;20208;-82
2023/01/17 11:06:17;;;;;;;1.80;1.70;;;17.20;44.10;;;;;;5021420;28;20224;-82
2023/01/17 11:08:52;;;;;;;1.40;1.30;;;17.30;43.70;;;;;;5018981;28;20210;-82
2023/01/17 11:11:21;;;;;;;2.15;1.55;;;17.20;44.20;;;;;;5019030;28;20200;-82
2023/01/17 11:13:48;;;;;;;1.83;1.60;;;17.20;44.00;;;;;;5019192;28;20196;-82
2023/01/17 11:16:18;;;;;;;1.92;1.58;;;17.30;44.00;;;;;;5019394;28;20220;-82
2023/01/17 11:18:46;;;;;;;1.40;1.30;;;17.30;43.60;;;;;;5019237;28;20207;-82
2023/01/17 11:21:15;;;;;;;1.58;1.48;;;17.40;43.00;;;;;;5019107;28;20196;-82
2023/01/17 11:23:42;;;;;;;1.42;1.33;;;17.40;42.90;;;;;;5018737;28;20254;-82
2023/01/17 11:26:11;;;;;;;1.38;1.27;;;17.40;43.30;;;;;;5018667;28;20232;-82
2023/01/17 11:28:40;;;;;;;2.13;1.77;;;17.40;43.20;;;;;;5018595;28;20204;-82
2023/01/17 11:31:22;;;;;;;1.92;1.60;;;17.40;43.70;;;;;;5018793;28;20223;-81
2023/01/17 11:33:54;;;;;;;1.50;1.40;;;17.30;43.60;;;;;;5019142;28;20250;-81
2023/01/17 11:36:23;;;;;;;1.80;1.40;;;17.40;43.60;;;;;;5019016;28;20223;-81
2023/01/17 11:38:57;;;;;;;1.52;1.40;;;17.40;43.10;;;;;;5019365;28;20203;-83
2023/01/17 11:41:26;;;;;;;1.80;1.67;;;17.50;43.50;;;;;;5019566;28;20200;-82
2023/01/17 11:43:56;;;;;;;1.48;1.38;;;17.50;43.70;;;;;;5021306;28;20206;-82
2023/01/17 11:46:23;;;;;;;1.52;1.42;;;17.50;43.30;;;;;;5018500;28;20345;-82
2023/01/17 11:48:52;;;;;;;1.65;1.40;;;17.50;43.50;;;;;;5019111;28;20608;-82
2023/01/17 11:51:22;;;;;;;2.38;1.30;;;17.50;43.90;;;;;;5019248;28;20200;-82
2023/01/17 11:53:49;;;;;;;1.52;1.40;;;17.50;43.60;;;;;;5018610;28;20196;-82
2023/01/17 11:56:23;;;;;;;1.63;1.52;;;17.60;43.50;;;;;;5019071;28;20222;-82
2023/01/17 11:58:50;;;;;;;1.50;1.20;;;17.60;43.60;;;;;;5019896;28;20192;-82
2023/01/17 12:01:33;;;;;;;1.55;1.30;;;17.60;42.40;;;;;;5020559;28;20246;-82
2023/01/17 12:04:12;;;;;;;1.27;1.23;;;17.60;43.20;;;;;;5021453;28;20615;-82
2023/01/17 12:06:43;;;;;;;1.30;1.20;;;17.70;42.80;;;;;;5019763;28;20234;-82
2023/01/17 12:09:21;;;;;;;1.60;1.42;;;17.70;43.00;;;;;;5019958;28;20212;-82
2023/01/17 12:14:43;;;;;;;1.88;1.40;;;17.80;42.80;;;;;;5019741;28;20188;-82
2023/01/17 12:17:19;;;;;;;1.40;1.30;;;17.80;42.70;;;;;;5020602;28;20216;-82
2023/01/17 12:19:59;;;;;;;1.25;1.15;;;17.80;42.30;;;;;;5019416;28;20271;-84
2023/01/17 12:22:46;;;;;;;1.33;1.17;;;17.90;43.50;;;;;;5019533;28;20635;-84
2023/01/17 12:25:24;;;;;;;1.50;1.40;;;17.90;42.30;;;;;;5019002;28;20196;-84
2023/01/17 12:28:02;;;;;;;1.70;1.42;;;17.90;42.60;;;;;;5019125;28;20226;-84
2023/01/17 12:30:38;;;;;;;1.50;1.40;;;17.90;42.00;;;;;;5019088;28;20261;-84
2023/01/17 12:33:14;;;;;;;1.60;1.50;;;17.90;42.30;;;;;;5019548;28;20221;-84
2023/01/17 12:35:43;;;;;;;1.48;1.27;;;17.90;42.80;;;;;;5002483;28;20242;-84
2023/01/17 12:38:11;;;;;;;1.35;1.30;;;18.00;42.70;;;;;;5020117;28;20204;-84
2023/01/17 12:40:41;;;;;;;1.33;1.20;;;18.00;42.50;;;;;;5018454;28;20204;-84
2023/01/17 12:43:12;;;;;;;1.20;1.10;;;18.00;43.00;;;;;;5017646;28;20185;-84
2023/01/17 12:45:41;;;;;;;1.35;1.25;;;18.00;42.20;;;;;;5017534;28;20200;-84
2023/01/17 12:48:11;;;;;;;1.40;1.30;;;18.00;43.20;;;;;;5016949;28;20199;-84
2023/01/17 12:50:40;;;;;;;1.20;1.20;;;18.00;42.90;;;;;;5017760;28;20196;-84
2023/01/17 12:53:14;;;;;;;1.50;1.40;;;18.00;43.00;;;;;;5017069;28;20228;-84
2023/01/17 12:55:45;;;;;;;1.50;1.40;;;18.00;42.80;;;;;;5017610;28;20196;-84
2023/01/17 12:58:15;;;;;;;1.40;1.30;;;18.00;43.00;;;;;;5016641;28;20196;-84
2023/01/17 13:00:47;;;;;;;1.20;1.10;;;18.00;42.80;;;;;;5016844;28;20202;-84
2023/01/17 13:03:22;;;;;;;1.40;1.30;;;18.10;42.70;;;;;;5016710;28;20196;-84
2023/01/17 13:05:50;;;;;;;2.08;1.48;;;18.00;42.10;;;;;;5016427;28;20191;-84
2023/01/17 13:08:21;;;;;;;1.70;1.23;;;18.10;42.90;;;;;;5016322;28;20208;-84
2023/01/17 13:10:50;;;;;;;1.23;1.13;;;18.10;42.20;;;;;;5015835;28;20554;-84
2023/01/17 13:13:21;;;;;;;1.30;1.20;;;18.10;42.40;;;;;;5017590;28;20199;-84
2023/01/17 13:15:48;;;;;;;1.95;1.40;;;18.10;42.10;;;;;;5016884;28;20198;-84
2023/01/17 13:18:21;;;;;;;1.20;1.10;;;18.10;42.50;;;;;;5016388;28;20200;-84
2023/01/17 13:21:12;;;;;;;1.40;1.30;;;18.10;42.50;;;;;;5016121;28;20620;-84
2023/01/17 13:24:04;;;;;;;1.40;1.30;;;18.00;42.10;;;;;;5005602;28;20196;-84
2023/01/17 13:26:38;;;;;;;1.30;1.20;;;18.00;42.00;;;;;;5010131;28;20227;-84
2023/01/17 13:29:07;;;;;;;2.55;1.30;;;18.00;42.70;;;;;;5016220;28;20216;-84
2023/01/17 13:31:47;;;;;;;1.25;1.15;;;18.00;42.50;;;;;;5017074;28;20202;-84
2023/01/17 13:34:24;;;;;;;1.30;1.20;;;18.00;42.30;;;;;;5016802;28;20210;-84
2023/01/17 13:37:04;;;;;;;1.48;1.38;;;18.00;42.60;;;;;;5017301;28;20220;-84
2023/01/17 13:39:50;;;;;;;1.20;1.10;;;18.00;42.50;;;;;;5017125;28;20673;-84
2023/01/17 13:42:23;;;;;;;1.55;1.27;;;18.00;42.60;;;;;;5017587;28;20678;-85
2023/01/17 13:44:50;;;;;;;2.13;1.48;;;18.00;42.30;;;;;;5018982;28;20231;-84
2023/01/17 13:47:39;;;;;;;1.33;1.23;;;18.00;42.10;;;;;;5017407;28;20250;-83
2023/01/17 13:50:27;;;;;;;1.17;1.05;;;18.00;42.30;;;;;;5016773;28;20203;-82
2023/01/17 13:52:56;;;;;;;1.83;1.38;;;18.00;42.10;;;;;;5016640;28;20242;-84
2023/01/17 13:55:44;;;;;;;1.27;1.17;;;18.00;42.60;;;;;;5016896;28;20222;-82
2023/01/17 13:58:27;;;;;;;1.30;1.20;;;18.00;42.40;;;;;;5016801;28;20203;-82
2023/01/17 14:00:55;;;;;;;1.40;1.23;;;18.00;42.10;;;;;;5016100;28;20199;-82
2023/01/17 14:04:00;;;;;;;1.05;1.00;;;18.00;42.10;;;;;;5000287;28;20206;-82
2023/01/17 14:06:33;;;;;;;1.20;1.00;;;18.00;42.00;;;;;;5016174;28;20250;-82
2023/01/17 14:09:02;;;;;;;1.30;1.20;;;18.00;42.60;;;;;;5016331;28;20204;-82
2023/01/17 14:11:32;;;;;;;1.30;1.20;;;17.90;42.20;;;;;;5016182;28;20204;-82
2023/01/17 14:14:07;;;;;;;1.20;1.10;;;17.90;42.50;;;;;;5016351;28;20196;-82
2023/01/17 14:16:34;;;;;;;1.80;1.23;;;17.90;42.30;;;;;;5017990;28;20694;-82
2023/01/17 14:19:03;;;;;;;1.38;1.20;;;17.90;42.40;;;;;;5018567;28;20269;-83
2023/01/17 14:21:31;;;;;;;1.52;1.40;;;17.90;42.30;;;;;;5019366;28;20204;-83
2023/01/17 14:24:03;;;;;;;2.83;1.40;;;17.80;41.90;;;;;;5020288;28;20283;-83